Beauregard Regional Airport
KDRI : rendu visible

Aérodrome :











RETROUVEZ-NOUS SUR...

 
LOGIN :

S'inscrire | Disclaimer

   EN    FR    IT 

 









Légende :    VFR   VFR Marginal   IFR   IFR Intensif   IFR Très Intensif
Visi : 
Plafond : 
>= 8 km
>= 3000ft
5 à 8 km
1000 à 3000 ft
1500m à 5 km
500 à 1000 ft
800 à 1500m
200 à 500 ft
< 800m
< 200 ft
Symboles :   Orages  Brouillard  Fortes neiges  Fortes précipitations  Vent > 20 kt






- Altitude de l'aérodrome : 202 ft


KDRI - Beauregard Regional

DERNIER METAR :
  • 121055Z AUTO 35014G23KT 10SM OVC017 03/00 A3037 RMK AO2 T00301001

METARs EXPIRÉS :
  • 121035Z AUTO 36014G27KT 10SM OVC017 03/00 A3036 RMK AO2 T00300000
  • 121015Z AUTO 36014G20KT 10SM OVC017 03/00 A3036 RMK AO2 T00300004
  • 120955Z AUTO 35012G21KT 10SM OVC017 03/01 A3035 RMK AO2 T00300007
  • 120935Z AUTO 35013G21KT 10SM -RA BKN013 OVC019 03/01 A3035 RMK AO2 T00310011
  • 120915Z AUTO 36016G24KT 330V030 10SM OVC010 03/02 A3034 RMK AO2 T00340022
  • 120855Z AUTO 36011G18KT 330V030 10SM -RA OVC010 04/03 A3032 RMK AO2 P0001 60001 T00400032
  • 120835Z AUTO 36016G21KT 10SM OVC012 04/03 A3031 RMK AO2 P0001 T00360030
  • 120815Z AUTO 36015G25KT 10SM BKN010 OVC014 04/03 A3031 RMK AO2 P0001 T00400032

TAF N/A



MET'MAP, la Météo Aéronautique d'un coup d'oeil ! - Copyright ORBIFLY Décembre 2007 - Disclaimer

ORBIFLY MET'MAP TEAM :

Programmation & Développement : Alexandra Zaïnal
Conception & Développement : Baudouin d'Aumeries
Co-Programmation & Développement : Marc-Olivier Méhu
Soutien technique & logistique : Manuel Goepfert

Contact : metmap@orbifly.com




SOURCES & CREDITS :

   NOAA       Earth
Advisory